sensor_id;sensor_type;location;lat;lon;timestamp;P1;durP1;ratioP1;P2;durP2;ratioP2
49900;SDS011;35789;48.414;12.768;2024-01-15T00:00:01;42.4;;;18.4;;
49900;SDS011;35789;48.414;12.768;2024-01-15T00:05:00;42.4;;;18.4;;
49900;SDS011;35789;48.414;12.768;2024-01-15T00:10:00;42.4;;;18.4;;
49900;SDS011;35789;48.414;12.768;2024-01-15T00:15:00;42.4;;;18.4;;
49900;SDS011;35789;48.414;12.768;2024-01-15T00:20:00;42.4;;;18.4;;
49900;SDS011;35789;48.414;12.768;2024-01-15T00:25:00;42.4;;;18.4;;
49900;SDS011;35789;48.414;12.768;2024-01-15T00:30:00;47.5;;;20.3;;
49900;SDS011;35789;48.414;12.768;2024-01-15T00:35:00;47.5;;;20.3;;
49900;SDS011;35789;48.414;12.768;2024-01-15T00:40:00;47.5;;;20.3;;
49900;SDS011;35789;48.414;12.768;2024-01-15T00:45:00;47.5;;;20.3;;
49900;SDS011;35789;48.414;12.768;2024-01-15T00:50:00;47.5;;;20.3;;
49900;SDS011;35789;48.414;12.768;2024-01-15T00:55:00;47.5;;;20.3;;
49900;SDS011;35789;48.414;12.768;2024-01-15T01:00:00;43.1;;;19.4;;
49900;SDS011;35789;48.414;12.768;2024-01-15T01:05:00;43.1;;;19.4;;
49900;SDS011;35789;48.414;12.768;2024-01-15T01:10:00;43.1;;;19.4;;
49900;SDS011;35789;48.414;12.768;2024-01-15T01:15:01;43.1;;;19.4;;
49900;SDS011;35789;48.414;12.768;2024-01-15T01:20:00;43.1;;;19.4;;
49900;SDS011;35789;48.414;12.768;2024-01-15T01:25:00;43.1;;;19.4;;
49900;SDS011;35789;48.414;12.768;2024-01-15T01:30:00;40.9;;;16.7;;
49900;SDS011;35789;48.414;12.768;2024-01-15T01:35:00;40.9;;;16.7;;
49900;SDS011;35789;48.414;12.768;2024-01-15T01:40:00;40.9;;;16.7;;
49900;SDS011;35789;48.414;12.768;2024-01-15T01:45:00;40.9;;;16.7;;
49900;SDS011;35789;48.414;12.768;2024-01-15T01:50:01;40.9;;;16.7;;
49900;SDS011;35789;48.414;12.768;2024-01-15T01:55:01;40.9;;;16.7;;
49900;SDS011;35789;48.414;12.768;2024-01-15T02:00:01;22.2;;;8.5;;
49900;SDS011;35789;48.414;12.768;2024-01-15T02:05:00;22.2;;;8.5;;
49900;SDS011;35789;48.414;12.768;2024-01-15T02:10:00;22.2;;;8.5;;
49900;SDS011;35789;48.414;12.768;2024-01-15T02:15:00;22.2;;;8.5;;
49900;SDS011;35789;48.414;12.768;2024-01-15T02:20:00;22.2;;;8.5;;
49900;SDS011;35789;48.414;12.768;2024-01-15T02:25:00;22.2;;;8.5;;
49900;SDS011;35789;48.414;12.768;2024-01-15T02:30:00;21.2;;;8.8;;
49900;SDS011;35789;48.414;12.768;2024-01-15T02:35:00;21.2;;;8.8;;
49900;SDS011;35789;48.414;12.768;2024-01-15T02:40:00;21.2;;;8.8;;
49900;SDS011;35789;48.414;12.768;2024-01-15T02:45:00;21.2;;;8.8;;
49900;SDS011;35789;48.414;12.768;2024-01-15T02:50:00;21.2;;;8.8;;
49900;SDS011;35789;48.414;12.768;2024-01-15T02:55:00;21.2;;;8.8;;
49900;SDS011;35789;48.414;12.768;2024-01-15T03:00:00;20.0;;;9.1;;
49900;SDS011;35789;48.414;12.768;2024-01-15T03:05:00;20.0;;;9.1;;
49900;SDS011;35789;48.414;12.768;2024-01-15T03:10:00;20.0;;;9.1;;
49900;SDS011;35789;48.414;12.768;2024-01-15T03:15:00;20.0;;;9.1;;
49900;SDS011;35789;48.414;12.768;2024-01-15T03:20:00;20.0;;;9.1;;
49900;SDS011;35789;48.414;12.768;2024-01-15T03:25:00;20.0;;;9.1;;
49900;SDS011;35789;48.414;12.768;2024-01-15T03:30:00;23.0;;;9.3;;
49900;SDS011;35789;48.414;12.768;2024-01-15T03:35:00;23.0;;;9.3;;
49900;SDS011;35789;48.414;12.768;2024-01-15T03:40:03;23.0;;;9.3;;
49900;SDS011;35789;48.414;12.768;2024-01-15T03:45:00;23.0;;;9.3;;
49900;SDS011;35789;48.414;12.768;2024-01-15T03:50:00;23.0;;;9.3;;
49900;SDS011;35789;48.414;12.768;2024-01-15T03:55:00;23.0;;;9.3;;
49900;SDS011;35789;48.414;12.768;2024-01-15T04:00:00;15.9;;;7.4;;
49900;SDS011;35789;48.414;12.768;2024-01-15T04:05:00;15.9;;;7.4;;
49900;SDS011;35789;48.414;12.768;2024-01-15T04:10:00;15.9;;;7.4;;
49900;SDS011;35789;48.414;12.768;2024-01-15T04:15:00;15.9;;;7.4;;
49900;SDS011;35789;48.414;12.768;2024-01-15T04:20:00;15.9;;;7.4;;
49900;SDS011;35789;48.414;12.768;2024-01-15T04:25:00;22.1;;;8.7;;
49900;SDS011;35789;48.414;12.768;2024-01-15T04:30:00;22.1;;;8.7;;
49900;SDS011;35789;48.414;12.768;2024-01-15T04:35:00;22.1;;;8.7;;
49900;SDS011;35789;48.414;12.768;2024-01-15T04:40:00;22.1;;;8.7;;
49900;SDS011;35789;48.414;12.768;2024-01-15T04:45:00;22.1;;;8.7;;
49900;SDS011;35789;48.414;12.768;2024-01-15T04:50:00;22.1;;;8.7;;
49900;SDS011;35789;48.414;12.768;2024-01-15T04:55:00;19.1;;;7.3;;
49900;SDS011;35789;48.414;12.768;2024-01-15T05:00:00;19.1;;;7.3;;
49900;SDS011;35789;48.414;12.768;2024-01-15T05:05:00;19.1;;;7.3;;
49900;SDS011;35789;48.414;12.768;2024-01-15T05:10:00;19.1;;;7.3;;
49900;SDS011;35789;48.414;12.768;2024-01-15T05:15:00;19.1;;;7.3;;
49900;SDS011;35789;48.414;12.768;2024-01-15T05:20:00;19.1;;;7.3;;
49900;SDS011;35789;48.414;12.768;2024-01-15T05:25:00;19.1;;;7.1;;
49900;SDS011;35789;48.414;12.768;2024-01-15T05:30:00;19.1;;;7.1;;
49900;SDS011;35789;48.414;12.768;2024-01-15T05:35:00;19.1;;;7.1;;
49900;SDS011;35789;48.414;12.768;2024-01-15T05:40:00;19.1;;;7.1;;
49900;SDS011;35789;48.414;12.768;2024-01-15T05:45:00;19.1;;;7.1;;
49900;SDS011;35789;48.414;12.768;2024-01-15T05:50:00;19.1;;;7.1;;
49900;SDS011;35789;48.414;12.768;2024-01-15T05:55:00;15.9;;;6.0;;
49900;SDS011;35789;48.414;12.768;2024-01-15T06:00:00;15.9;;;6.0;;
49900;SDS011;35789;48.414;12.768;2024-01-15T06:05:00;15.9;;;6.0;;
49900;SDS011;35789;48.414;12.768;2024-01-15T06:10:00;15.9;;;6.0;;
49900;SDS011;35789;48.414;12.768;2024-01-15T06:15:00;15.9;;;6.0;;
49900;SDS011;35789;48.414;12.768;2024-01-15T06:20:00;15.9;;;6.0;;
49900;SDS011;35789;48.414;12.768;2024-01-15T06:25:00;13.6;;;5.7;;
49900;SDS011;35789;48.414;12.768;2024-01-15T06:30:00;13.6;;;5.7;;
49900;SDS011;35789;48.414;12.768;2024-01-15T06:35:00;13.6;;;5.7;;
49900;SDS011;35789;48.414;12.768;2024-01-15T06:40:00;13.6;;;5.7;;
49900;SDS011;35789;48.414;12.768;2024-01-15T06:45:00;13.6;;;5.7;;
49900;SDS011;35789;48.414;12.768;2024-01-15T06:50:00;13.6;;;5.7;;
49900;SDS011;35789;48.414;12.768;2024-01-15T06:55:00;14.6;;;6.1;;
49900;SDS011;35789;48.414;12.768;2024-01-15T07:00:00;14.6;;;6.1;;
49900;SDS011;35789;48.414;12.768;2024-01-15T07:05:00;14.6;;;6.1;;
49900;SDS011;35789;48.414;12.768;2024-01-15T07:10:00;14.6;;;6.1;;
49900;SDS011;35789;48.414;12.768;2024-01-15T07:15:00;14.6;;;6.1;;
49900;SDS011;35789;48.414;12.768;2024-01-15T07:20:00;14.6;;;6.1;;
49900;SDS011;35789;48.414;12.768;2024-01-15T07:25:00;11.6;;;5.4;;
49900;SDS011;35789;48.414;12.768;2024-01-15T07:30:00;11.6;;;5.4;;
49900;SDS011;35789;48.414;12.768;2024-01-15T07:35:00;11.6;;;5.4;;
49900;SDS011;35789;48.414;12.768;2024-01-15T07:40:00;11.6;;;5.4;;
49900;SDS011;35789;48.414;12.768;2024-01-15T07:45:00;11.6;;;5.4;;
49900;SDS011;35789;48.414;12.768;2024-01-15T07:50:00;11.6;;;5.4;;
49900;SDS011;35789;48.414;12.768;2024-01-15T07:55:00;12.2;;;5.3;;
49900;SDS011;35789;48.414;12.768;2024-01-15T08:00:00;12.2;;;5.3;;
49900;SDS011;35789;48.414;12.768;2024-01-15T08:05:00;12.2;;;5.3;;
49900;SDS011;35789;48.414;12.768;2024-01-15T08:10:00;12.2;;;5.3;;
49900;SDS011;35789;48.414;12.768;2024-01-15T08:15:00;12.2;;;5.3;;
49900;SDS011;35789;48.414;12.768;2024-01-15T08:20:00;12.2;;;5.3;;
49900;SDS011;35789;48.414;12.768;2024-01-15T08:25:00;11.3;;;5.0;;
49900;SDS011;35789;48.414;12.768;2024-01-15T08:30:00;11.3;;;5.0;;
49900;SDS011;35789;48.414;12.768;2024-01-15T08:35:00;11.3;;;5.0;;
49900;SDS011;35789;48.414;12.768;2024-01-15T08:40:00;11.3;;;5.0;;
49900;SDS011;35789;48.414;12.768;2024-01-15T08:45:00;11.3;;;5.0;;
49900;SDS011;35789;48.414;12.768;2024-01-15T08:50:00;11.3;;;5.0;;
49900;SDS011;35789;48.414;12.768;2024-01-15T08:55:00;10.2;;;4.2;;
49900;SDS011;35789;48.414;12.768;2024-01-15T09:00:00;10.2;;;4.2;;
49900;SDS011;35789;48.414;12.768;2024-01-15T09:05:00;10.2;;;4.2;;
49900;SDS011;35789;48.414;12.768;2024-01-15T09:10:00;10.2;;;4.2;;
49900;SDS011;35789;48.414;12.768;2024-01-15T09:15:00;10.2;;;4.2;;
49900;SDS011;35789;48.414;12.768;2024-01-15T09:20:00;10.2;;;4.2;;
49900;SDS011;35789;48.414;12.768;2024-01-15T09:25:00;10.9;;;4.9;;
49900;SDS011;35789;48.414;12.768;2024-01-15T09:30:00;10.9;;;4.9;;
49900;SDS011;35789;48.414;12.768;2024-01-15T09:35:00;10.9;;;4.9;;
49900;SDS011;35789;48.414;12.768;2024-01-15T09:40:00;10.9;;;4.9;;
49900;SDS011;35789;48.414;12.768;2024-01-15T09:45:00;10.9;;;4.9;;
49900;SDS011;35789;48.414;12.768;2024-01-15T09:50:00;10.9;;;4.9;;
49900;SDS011;35789;48.414;12.768;2024-01-15T09:55:01;9.4;;;3.7;;
49900;SDS011;35789;48.414;12.768;2024-01-15T10:00:01;9.4;;;3.7;;
49900;SDS011;35789;48.414;12.768;2024-01-15T10:05:00;9.4;;;3.7;;
49900;SDS011;35789;48.414;12.768;2024-01-15T10:10:00;9.4;;;3.7;;
49900;SDS011;35789;48.414;12.768;2024-01-15T10:15:01;9.4;;;3.7;;
49900;SDS011;35789;48.414;12.768;2024-01-15T10:20:00;9.4;;;3.7;;
49900;SDS011;35789;48.414;12.768;2024-01-15T10:25:01;10.3;;;4.4;;
49900;SDS011;35789;48.414;12.768;2024-01-15T10:30:00;10.3;;;4.4;;
49900;SDS011;35789;48.414;12.768;2024-01-15T10:35:00;10.3;;;4.4;;
49900;SDS011;35789;48.414;12.768;2024-01-15T10:40:01;10.3;;;4.4;;
49900;SDS011;35789;48.414;12.768;2024-01-15T10:45:01;10.3;;;4.4;;
49900;SDS011;35789;48.414;12.768;2024-01-15T10:50:01;10.3;;;4.4;;
49900;SDS011;35789;48.414;12.768;2024-01-15T10:55:00;12.3;;;5.1;;
49900;SDS011;35789;48.414;12.768;2024-01-15T11:00:00;12.3;;;5.1;;
49900;SDS011;35789;48.414;12.768;2024-01-15T11:05:00;12.3;;;5.1;;
49900;SDS011;35789;48.414;12.768;2024-01-15T11:10:02;12.3;;;5.1;;
49900;SDS011;35789;48.414;12.768;2024-01-15T11:15:02;12.3;;;5.1;;
49900;SDS011;35789;48.414;12.768;2024-01-15T11:20:00;12.3;;;5.1;;
49900;SDS011;35789;48.414;12.768;2024-01-15T11:25:02;12.2;;;5.6;;
49900;SDS011;35789;48.414;12.768;2024-01-15T11:30:03;12.2;;;5.6;;
49900;SDS011;35789;48.414;12.768;2024-01-15T11:35:00;12.2;;;5.6;;
49900;SDS011;35789;48.414;12.768;2024-01-15T11:40:03;12.2;;;5.6;;
49900;SDS011;35789;48.414;12.768;2024-01-15T11:45:00;12.2;;;5.6;;
49900;SDS011;35789;48.414;12.768;2024-01-15T11:50:00;12.2;;;5.6;;
49900;SDS011;35789;48.414;12.768;2024-01-15T11:55:11;11.5;;;4.8;;
49900;SDS011;35789;48.414;12.768;2024-01-15T12:00:01;11.5;;;4.8;;
49900;SDS011;35789;48.414;12.768;2024-01-15T12:05:00;11.5;;;4.8;;
49900;SDS011;35789;48.414;12.768;2024-01-15T12:10:00;11.5;;;4.8;;
49900;SDS011;35789;48.414;12.768;2024-01-15T12:15:00;11.5;;;4.8;;
49900;SDS011;35789;48.414;12.768;2024-01-15T12:20:00;11.5;;;4.8;;
49900;SDS011;35789;48.414;12.768;2024-01-15T12:25:00;10.4;;;5.3;;
49900;SDS011;35789;48.414;12.768;2024-01-15T12:30:00;10.4;;;5.3;;
49900;SDS011;35789;48.414;12.768;2024-01-15T12:35:00;10.4;;;5.3;;
49900;SDS011;35789;48.414;12.768;2024-01-15T12:40:00;10.4;;;5.3;;
49900;SDS011;35789;48.414;12.768;2024-01-15T12:45:00;10.4;;;5.3;;
49900;SDS011;35789;48.414;12.768;2024-01-15T12:50:00;10.4;;;5.3;;
49900;SDS011;35789;48.414;12.768;2024-01-15T12:55:00;7.4;;;3.2;;
49900;SDS011;35789;48.414;12.768;2024-01-15T13:00:00;7.4;;;3.2;;
49900;SDS011;35789;48.414;12.768;2024-01-15T13:05:00;7.4;;;3.2;;
49900;SDS011;35789;48.414;12.768;2024-01-15T13:10:00;7.4;;;3.2;;
49900;SDS011;35789;48.414;12.768;2024-01-15T13:15:00;7.4;;;3.2;;
49900;SDS011;35789;48.414;12.768;2024-01-15T13:20:00;7.4;;;3.2;;
49900;SDS011;35789;48.414;12.768;2024-01-15T13:25:00;6.7;;;2.9;;
49900;SDS011;35789;48.414;12.768;2024-01-15T13:30:00;6.7;;;2.9;;
49900;SDS011;35789;48.414;12.768;2024-01-15T13:35:00;6.7;;;2.9;;
49900;SDS011;35789;48.414;12.768;2024-01-15T13:40:00;6.7;;;2.9;;
49900;SDS011;35789;48.414;12.768;2024-01-15T13:45:00;6.7;;;2.9;;
49900;SDS011;35789;48.414;12.768;2024-01-15T13:50:00;6.7;;;2.9;;
49900;SDS011;35789;48.414;12.768;2024-01-15T13:55:00;10.7;;;4.5;;
49900;SDS011;35789;48.414;12.768;2024-01-15T14:00:00;10.7;;;4.5;;
49900;SDS011;35789;48.414;12.768;2024-01-15T14:05:00;10.7;;;4.5;;
49900;SDS011;35789;48.414;12.768;2024-01-15T14:10:00;10.7;;;4.5;;
49900;SDS011;35789;48.414;12.768;2024-01-15T14:15:00;10.7;;;4.5;;
49900;SDS011;35789;48.414;12.768;2024-01-15T14:20:00;10.7;;;4.5;;
49900;SDS011;35789;48.414;12.768;2024-01-15T14:25:00;15.6;;;6.8;;
49900;SDS011;35789;48.414;12.768;2024-01-15T14:30:00;15.6;;;6.8;;
49900;SDS011;35789;48.414;12.768;2024-01-15T14:35:00;15.6;;;6.8;;
49900;SDS011;35789;48.414;12.768;2024-01-15T14:40:00;15.6;;;6.8;;
49900;SDS011;35789;48.414;12.768;2024-01-15T14:45:00;15.6;;;6.8;;
49900;SDS011;35789;48.414;12.768;2024-01-15T14:50:00;15.6;;;6.8;;
49900;SDS011;35789;48.414;12.768;2024-01-15T14:55:00;9.3;;;4.1;;
49900;SDS011;35789;48.414;12.768;2024-01-15T15:00:00;9.3;;;4.1;;
49900;SDS011;35789;48.414;12.768;2024-01-15T15:05:00;9.3;;;4.1;;
49900;SDS011;35789;48.414;12.768;2024-01-15T15:10:00;9.3;;;4.1;;
49900;SDS011;35789;48.414;12.768;2024-01-15T15:15:00;9.3;;;4.1;;
49900;SDS011;35789;48.414;12.768;2024-01-15T15:20:00;9.3;;;4.1;;
49900;SDS011;35789;48.414;12.768;2024-01-15T15:25:00;11.2;;;4.7;;
49900;SDS011;35789;48.414;12.768;2024-01-15T15:30:00;11.2;;;4.7;;
49900;SDS011;35789;48.414;12.768;2024-01-15T15:35:00;11.2;;;4.7;;
49900;SDS011;35789;48.414;12.768;2024-01-15T15:40:04;11.2;;;4.7;;
49900;SDS011;35789;48.414;12.768;2024-01-15T15:45:00;11.2;;;4.7;;
49900;SDS011;35789;48.414;12.768;2024-01-15T15:50:00;11.2;;;4.7;;
49900;SDS011;35789;48.414;12.768;2024-01-15T15:55:00;8.2;;;4.2;;
49900;SDS011;35789;48.414;12.768;2024-01-15T16:00:00;8.2;;;4.2;;
49900;SDS011;35789;48.414;12.768;2024-01-15T16:05:00;8.2;;;4.2;;
49900;SDS011;35789;48.414;12.768;2024-01-15T16:10:00;8.2;;;4.2;;
49900;SDS011;35789;48.414;12.768;2024-01-15T16:15:00;8.2;;;4.2;;
49900;SDS011;35789;48.414;12.768;2024-01-15T16:20:00;10.4;;;5.0;;
49900;SDS011;35789;48.414;12.768;2024-01-15T16:25:00;10.4;;;5.0;;
49900;SDS011;35789;48.414;12.768;2024-01-15T16:30:00;10.4;;;5.0;;
49900;SDS011;35789;48.414;12.768;2024-01-15T16:35:00;10.4;;;5.0;;
49900;SDS011;35789;48.414;12.768;2024-01-15T16:40:00;10.4;;;5.0;;
49900;SDS011;35789;48.414;12.768;2024-01-15T16:45:00;10.4;;;5.0;;
49900;SDS011;35789;48.414;12.768;2024-01-15T16:50:00;12.9;;;6.1;;
49900;SDS011;35789;48.414;12.768;2024-01-15T16:55:00;12.9;;;6.1;;
49900;SDS011;35789;48.414;12.768;2024-01-15T17:00:00;12.9;;;6.1;;
49900;SDS011;35789;48.414;12.768;2024-01-15T17:05:00;12.9;;;6.1;;
49900;SDS011;35789;48.414;12.768;2024-01-15T17:10:00;12.9;;;6.1;;
49900;SDS011;35789;48.414;12.768;2024-01-15T17:15:00;12.9;;;6.1;;
49900;SDS011;35789;48.414;12.768;2024-01-15T17:20:00;11.6;;;4.3;;
49900;SDS011;35789;48.414;12.768;2024-01-15T17:25:00;11.6;;;4.3;;
49900;SDS011;35789;48.414;12.768;2024-01-15T17:30:00;11.6;;;4.3;;
49900;SDS011;35789;48.414;12.768;2024-01-15T17:35:00;11.6;;;4.3;;
49900;SDS011;35789;48.414;12.768;2024-01-15T17:40:00;11.6;;;4.3;;
49900;SDS011;35789;48.414;12.768;2024-01-15T17:45:00;11.6;;;4.3;;
49900;SDS011;35789;48.414;12.768;2024-01-15T17:50:00;8.1;;;3.4;;
49900;SDS011;35789;48.414;12.768;2024-01-15T17:55:00;8.1;;;3.4;;
49900;SDS011;35789;48.414;12.768;2024-01-15T18:00:00;8.1;;;3.4;;
49900;SDS011;35789;48.414;12.768;2024-01-15T18:05:00;8.1;;;3.4;;
49900;SDS011;35789;48.414;12.768;2024-01-15T18:10:00;8.1;;;3.4;;
49900;SDS011;35789;48.414;12.768;2024-01-15T18:15:00;8.1;;;3.4;;
49900;SDS011;35789;48.414;12.768;2024-01-15T18:20:00;5.1;;;2.0;;
49900;SDS011;35789;48.414;12.768;2024-01-15T18:25:00;5.1;;;2.0;;
49900;SDS011;35789;48.414;12.768;2024-01-15T18:30:00;5.1;;;2.0;;
49900;SDS011;35789;48.414;12.768;2024-01-15T18:35:00;5.1;;;2.0;;
49900;SDS011;35789;48.414;12.768;2024-01-15T18:40:00;5.1;;;2.0;;
49900;SDS011;35789;48.414;12.768;2024-01-15T18:45:00;5.1;;;2.0;;
49900;SDS011;35789;48.414;12.768;2024-01-15T18:50:00;6.0;;;3.4;;
49900;SDS011;35789;48.414;12.768;2024-01-15T18:55:00;6.0;;;3.4;;
49900;SDS011;35789;48.414;12.768;2024-01-15T19:00:00;6.0;;;3.4;;
49900;SDS011;35789;48.414;12.768;2024-01-15T19:05:00;6.0;;;3.4;;
49900;SDS011;35789;48.414;12.768;2024-01-15T19:10:00;6.0;;;3.4;;
49900;SDS011;35789;48.414;12.768;2024-01-15T19:15:00;6.0;;;3.4;;
49900;SDS011;35789;48.414;12.768;2024-01-15T19:20:00;8.7;;;4.1;;
49900;SDS011;35789;48.414;12.768;2024-01-15T19:25:00;8.7;;;4.1;;
49900;SDS011;35789;48.414;12.768;2024-01-15T19:30:00;8.7;;;4.1;;
49900;SDS011;35789;48.414;12.768;2024-01-15T19:35:00;8.7;;;4.1;;
49900;SDS011;35789;48.414;12.768;2024-01-15T19:40:00;8.7;;;4.1;;
49900;SDS011;35789;48.414;12.768;2024-01-15T19:45:00;8.7;;;4.1;;
49900;SDS011;35789;48.414;12.768;2024-01-15T19:50:00;6.4;;;3.2;;
49900;SDS011;35789;48.414;12.768;2024-01-15T19:55:00;6.4;;;3.2;;
49900;SDS011;35789;48.414;12.768;2024-01-15T20:00:00;6.4;;;3.2;;
49900;SDS011;35789;48.414;12.768;2024-01-15T20:05:00;6.4;;;3.2;;
49900;SDS011;35789;48.414;12.768;2024-01-15T20:10:00;6.4;;;3.2;;
49900;SDS011;35789;48.414;12.768;2024-01-15T20:15:00;6.4;;;3.2;;
49900;SDS011;35789;48.414;12.768;2024-01-15T20:20:00;11.3;;;5.5;;
49900;SDS011;35789;48.414;12.768;2024-01-15T20:25:00;11.3;;;5.5;;
49900;SDS011;35789;48.414;12.768;2024-01-15T20:30:00;11.3;;;5.5;;
49900;SDS011;35789;48.414;12.768;2024-01-15T20:35:00;11.3;;;5.5;;
49900;SDS011;35789;48.414;12.768;2024-01-15T20:40:00;11.3;;;5.5;;
49900;SDS011;35789;48.414;12.768;2024-01-15T20:45:00;11.3;;;5.5;;
49900;SDS011;35789;48.414;12.768;2024-01-15T20:50:00;10.0;;;4.6;;
49900;SDS011;35789;48.414;12.768;2024-01-15T20:55:00;10.0;;;4.6;;
49900;SDS011;35789;48.414;12.768;2024-01-15T21:00:00;10.0;;;4.6;;
49900;SDS011;35789;48.414;12.768;2024-01-15T21:05:00;10.0;;;4.6;;
49900;SDS011;35789;48.414;12.768;2024-01-15T21:10:00;10.0;;;4.6;;
49900;SDS011;35789;48.414;12.768;2024-01-15T21:15:00;10.0;;;4.6;;
49900;SDS011;35789;48.414;12.768;2024-01-15T21:20:00;9.3;;;3.9;;
49900;SDS011;35789;48.414;12.768;2024-01-15T21:25:01;9.3;;;3.9;;
49900;SDS011;35789;48.414;12.768;2024-01-15T21:30:00;9.3;;;3.9;;
49900;SDS011;35789;48.414;12.768;2024-01-15T21:35:03;9.3;;;3.9;;
49900;SDS011;35789;48.414;12.768;2024-01-15T21:40:00;9.3;;;3.9;;
49900;SDS011;35789;48.414;12.768;2024-01-15T21:45:00;9.3;;;3.9;;
49900;SDS011;35789;48.414;12.768;2024-01-15T21:50:00;6.7;;;3.0;;
49900;SDS011;35789;48.414;12.768;2024-01-15T21:55:00;6.7;;;3.0;;
49900;SDS011;35789;48.414;12.768;2024-01-15T22:00:00;6.7;;;3.0;;
49900;SDS011;35789;48.414;12.768;2024-01-15T22:05:00;6.7;;;3.0;;
49900;SDS011;35789;48.414;12.768;2024-01-15T22:10:00;6.7;;;3.0;;
49900;SDS011;35789;48.414;12.768;2024-01-15T22:15:00;6.7;;;3.0;;
49900;SDS011;35789;48.414;12.768;2024-01-15T22:20:03;7.3;;;3.4;;
49900;SDS011;35789;48.414;12.768;2024-01-15T22:25:00;7.3;;;3.4;;
49900;SDS011;35789;48.414;12.768;2024-01-15T22:30:00;7.3;;;3.4;;
49900;SDS011;35789;48.414;12.768;2024-01-15T22:35:00;7.3;;;3.4;;
49900;SDS011;35789;48.414;12.768;2024-01-15T22:40:00;7.3;;;3.4;;
49900;SDS011;35789;48.414;12.768;2024-01-15T22:45:00;7.3;;;3.4;;
49900;SDS011;35789;48.414;12.768;2024-01-15T22:50:00;9.1;;;3.4;;
49900;SDS011;35789;48.414;12.768;2024-01-15T22:55:00;9.1;;;3.4;;
49900;SDS011;35789;48.414;12.768;2024-01-15T23:00:00;9.1;;;3.4;;
49900;SDS011;35789;48.414;12.768;2024-01-15T23:05:01;9.1;;;3.4;;
49900;SDS011;35789;48.414;12.768;2024-01-15T23:10:00;9.1;;;3.4;;
49900;SDS011;35789;48.414;12.768;2024-01-15T23:15:00;9.1;;;3.4;;
49900;SDS011;35789;48.414;12.768;2024-01-15T23:20:00;6.8;;;3.2;;
49900;SDS011;35789;48.414;12.768;2024-01-15T23:25:00;6.8;;;3.2;;
49900;SDS011;35789;48.414;12.768;2024-01-15T23:30:00;6.8;;;3.2;;
49900;SDS011;35789;48.414;12.768;2024-01-15T23:35:00;6.8;;;3.2;;
49900;SDS011;35789;48.414;12.768;2024-01-15T23:40:00;6.8;;;3.2;;
49900;SDS011;35789;48.414;12.768;2024-01-15T23:45:00;6.8;;;3.2;;
49900;SDS011;35789;48.414;12.768;2024-01-15T23:50:00;7.4;;;2.9;;
49900;SDS011;35789;48.414;12.768;2024-01-15T23:55:00;7.4;;;2.9;;
